»·PEaware :: SWA1460 KSJC-KPHX

SWA1460 :: KSJC-KPHX

FLIGHT INFORMATION

Flight Status: Arrived
Operator:
Southwest Airlines
More flights by this operator :: More flights under this callsign
Pilot: Charles S. (11412)
Aircraft: BOEING 737-900
(B739)
More flights by this aircraft type
Origin: KSJC Mineta San Jose Intl
United States
Destination: KPHX Phoenix Sky Harbor Intl
United States
More flights between these airports :: More routes between these airports
Route: +TECKY3 LOSHN BOILE BLH HYDRR1
File this flight plan on PilotEdge
Remarks:
Altitude:
(Current/Filed)
41,000ft
Speed:
(Current/Filed)
150kts
Departed: 03-Jul-18 03:32 PM
Arrived: 03-Jul-18 05:13 PM
Distance/Time
Traveled:
540nm/1:41
Distance/Time
To Go:
Arrived

Flight Plot

Page will automatically refresh every two minutes.

Flight plan parsing failed; only flown route is shown


Map Options




Map Legend


Flown Route
Filed Route
Departure Airport
Arrival Airport
Navaid (VOR, NDB)
Fix

Horizontal Profiles

Position Reports

Time Latitude Longitude Heading Altitude Ground
Speed
03-Jul-18 15:09 37.366573 -121.927073 49 45ft 0kts
03-Jul-18 15:10 37.366573 -121.927073 49 45ft 0kts
03-Jul-18 15:11 37.366573 -121.927073 49 45ft 0kts
03-Jul-18 15:12 37.366573 -121.927073 49 45ft 0kts
03-Jul-18 15:13 37.366573 -121.927073 49 45ft 0kts
03-Jul-18 15:14 37.366573 -121.927073 49 45ft 0kts
03-Jul-18 15:15 37.366573 -121.927073 49 45ft 0kts
03-Jul-18 15:16 37.366573 -121.927073 49 45ft 0kts
03-Jul-18 15:17 37.366573 -121.927073 49 45ft 0kts
03-Jul-18 15:18 37.366573 -121.927073 49 45ft 0kts
03-Jul-18 15:19 37.366573 -121.927073 49 45ft 0kts
03-Jul-18 15:20 37.366573 -121.927073 49 45ft 0kts
03-Jul-18 15:21 37.366574 -121.927072 49 45ft 0kts
03-Jul-18 15:22 37.366328 -121.927430 49 46ft 2kts
03-Jul-18 15:23 37.365992 -121.927655 271 47ft 0kts
03-Jul-18 15:24 37.365866 -121.927489 171 47ft 1kts
03-Jul-18 15:25 37.365923 -121.927516 305 47ft 0kts
03-Jul-18 15:26 37.368113 -121.929963 318 44ft 16kts
03-Jul-18 15:27 37.372891 -121.935200 319 38ft 16kts
03-Jul-18 15:28 37.373095 -121.935739 250 39ft 1kts
03-Jul-18 15:29 37.375159 -121.938740 304 41ft 0kts
03-Jul-18 15:30 37.375161 -121.938742 304 41ft 0kts
03-Jul-18 15:31 37.375008 -121.939771 217 43ft 9kts
03-Jul-18 15:32 37.357512 -121.920857 141 805ft 163kts
03-Jul-18 15:33 37.317059 -121.877305 138 2698ft 213kts
03-Jul-18 15:34 37.273821 -121.821594 130 4076ft 234kts
03-Jul-18 15:35 37.234269 -121.758670 129 5430ft 241kts
03-Jul-18 15:36 37.190732 -121.689624 129 6834ft 269kts
03-Jul-18 15:37 37.144131 -121.615833 129 8224ft 276kts
03-Jul-18 15:38 37.096552 -121.540812 129 9613ft 282kts
03-Jul-18 15:39 37.047144 -121.465643 132 10998ft 287kts
03-Jul-18 15:40 36.996253 -121.395842 133 12669ft 295kts
03-Jul-18 15:41 36.940442 -121.319573 134 14467ft 304kts
03-Jul-18 15:42 36.882584 -121.240525 134 16267ft 314kts
03-Jul-18 15:43 36.823276 -121.159691 134 18059ft 322kts
03-Jul-18 15:44 36.762044 -121.076466 135 19863ft 330kts
03-Jul-18 15:45 36.699374 -120.991533 135 21667ft 338kts
03-Jul-18 15:46 36.633923 -120.906154 139 23473ft 347kts
03-Jul-18 15:47 36.562349 -120.822731 140 25284ft 360kts
03-Jul-18 15:48 36.488904 -120.737339 140 27080ft 372kts
03-Jul-18 15:49 36.412960 -120.649194 140 28880ft 383kts
03-Jul-18 15:50 36.334174 -120.557985 140 30695ft 395kts
03-Jul-18 15:51 36.252293 -120.463419 140 32525ft 413kts
03-Jul-18 15:53 36.172397 -120.371406 140 34238ft 426kts
03-Jul-18 15:54 36.092001 -120.279025 141 35884ft 434kts
03-Jul-18 15:55 36.003691 -120.177819 141 37652ft 433kts
03-Jul-18 15:56 35.916522 -120.078243 141 39399ft 423kts
03-Jul-18 15:57 35.835052 -119.983017 135 40855ft 415kts
03-Jul-18 15:58 35.756628 -119.872337 134 40897ft 442kts
03-Jul-18 15:59 35.675038 -119.758810 134 40860ft 461kts
03-Jul-18 16:00 35.594696 -119.648204 134 40846ft 463kts
03-Jul-18 16:01 35.508928 -119.530316 134 40847ft 463kts
03-Jul-18 16:02 35.423298 -119.412489 134 40852ft 463kts
03-Jul-18 16:03 35.338300 -119.295397 135 40851ft 463kts
03-Jul-18 16:04 35.261050 -119.188782 135 40851ft 463kts
03-Jul-18 16:05 35.189462 -119.089940 134 40852ft 463kts
03-Jul-18 16:06 35.104324 -118.972233 134 40874ft 461kts
03-Jul-18 16:07 35.020116 -118.855605 134 40984ft 461kts
03-Jul-18 16:08 34.937152 -118.740691 133 41045ft 458kts
03-Jul-18 16:09 34.854425 -118.625841 132 41041ft 455kts
03-Jul-18 16:10 34.771137 -118.510098 132 40980ft 455kts
03-Jul-18 16:11 34.688079 -118.394565 132 40949ft 456kts
03-Jul-18 16:12 34.608194 -118.283290 132 40944ft 455kts
03-Jul-18 16:13 34.526237 -118.169034 132 40948ft 455kts
03-Jul-18 16:14 34.444336 -118.054124 128 40942ft 456kts
03-Jul-18 16:15 34.396198 -117.913095 108 40984ft 459kts
03-Jul-18 16:16 34.357745 -117.767174 108 40998ft 460kts
03-Jul-18 16:17 34.318949 -117.620455 108 40975ft 459kts
03-Jul-18 16:18 34.280219 -117.473323 108 40969ft 460kts
03-Jul-18 16:19 34.241930 -117.327266 108 40962ft 459kts
03-Jul-18 16:20 34.203744 -117.180858 108 40962ft 459kts
03-Jul-18 16:21 34.165813 -117.034801 108 40962ft 458kts
03-Jul-18 16:22 34.128071 -116.888821 108 40962ft 457kts
03-Jul-18 16:23 34.090800 -116.744018 108 40901ft 456kts
03-Jul-18 16:24 34.053573 -116.598710 108 40835ft 456kts
03-Jul-18 16:25 34.016240 -116.452450 107 40835ft 457kts
03-Jul-18 16:26 33.979407 -116.307250 108 40836ft 456kts
03-Jul-18 16:27 33.942554 -116.161270 108 40809ft 457kts
03-Jul-18 16:28 33.906378 -116.017501 107 40779ft 456kts
03-Jul-18 16:29 33.870580 -115.874538 107 40781ft 457kts
03-Jul-18 16:30 33.834240 -115.728826 107 40781ft 457kts
03-Jul-18 16:31 33.798114 -115.583197 107 40781ft 457kts
03-Jul-18 16:32 33.762104 -115.437451 107 40142ft 456kts
03-Jul-18 16:33 33.726750 -115.293691 107 38375ft 453kts
03-Jul-18 16:34 33.691450 -115.149473 107 36822ft 454kts
03-Jul-18 16:35 33.656162 -115.004688 107 35339ft 455kts
03-Jul-18 16:36 33.620684 -114.858544 107 33854ft 459kts
03-Jul-18 16:37 33.586953 -114.710637 104 32350ft 464kts
03-Jul-18 16:38 33.557618 -114.559902 104 30666ft 467kts
03-Jul-18 16:39 33.527899 -114.408269 104 28988ft 471kts
03-Jul-18 16:40 33.497945 -114.255780 105 26822ft 464kts
03-Jul-18 16:41 33.471121 -114.120097 105 23567ft 407kts
03-Jul-18 16:42 33.445027 -113.989735 105 22804ft 404kts
03-Jul-18 16:43 33.418794 -113.859266 105 22807ft 403kts
03-Jul-18 16:44 33.392623 -113.729750 105 22810ft 403kts
03-Jul-18 16:45 33.366420 -113.600619 105 22840ft 403kts
03-Jul-18 16:46 33.339324 -113.467527 105 20899ft 439kts
03-Jul-18 16:46 33.318991 -113.352083 103 18377ft 402kts
03-Jul-18 16:47 33.297973 -113.230246 103 16930ft 378kts
03-Jul-18 16:48 33.279555 -113.103607 101 15663ft 401kts
03-Jul-18 16:49 33.276336 -112.968073 89 14336ft 418kts
03-Jul-18 16:50 33.279938 -112.832773 90 13016ft 359kts
03-Jul-18 16:51 33.292459 -112.732887 81 12047ft 268kts
03-Jul-18 16:52 33.305138 -112.651102 82 11299ft 257kts
03-Jul-18 16:53 33.319491 -112.555772 81 10317ft 318kts
03-Jul-18 16:54 33.334269 -112.457994 82 8697ft 292kts
03-Jul-18 16:55 33.346831 -112.363225 83 7125ft 288kts
03-Jul-18 16:56 33.354089 -112.272667 97 7018ft 262kts
03-Jul-18 16:57 33.354224 -112.184571 90 7018ft 269kts
03-Jul-18 16:58 33.357616 -112.097095 90 7021ft 261kts
03-Jul-18 16:59 33.361092 -112.011998 89 7023ft 266kts
03-Jul-18 17:00 33.361396 -111.927075 99 6919ft 252kts
03-Jul-18 17:01 33.353875 -111.846722 100 6317ft 244kts
03-Jul-18 17:02 33.346566 -111.766246 99 5530ft 250kts
03-Jul-18 17:03 33.339349 -111.686144 98 5080ft 230kts
03-Jul-18 17:04 33.335720 -111.609813 67 5032ft 238kts
03-Jul-18 17:05 33.395486 -111.589687 359 5057ft 238kts
03-Jul-18 17:06 33.439477 -111.625127 268 5054ft 204kts
03-Jul-18 17:07 33.432048 -111.693624 266 5378ft 212kts
03-Jul-18 17:08 33.432153 -111.764167 263 4596ft 210kts
03-Jul-18 17:09 33.431359 -111.831233 269 3617ft 175kts
03-Jul-18 17:10 33.431292 -111.887326 266 2774ft 161kts
03-Jul-18 17:11 33.431016 -111.939518 269 1965ft 154kts
03-Jul-18 17:12 33.431062 -111.990258 267 1225ft 150kts
03-Jul-18 17:13 33.431872 -112.012750 29 1124ft 0kts
03-Jul-18 17:14 33.431893 -112.012737 27 1124ft 0kts
03-Jul-18 17:15 33.432105 -112.008813 83 1126ft 15kts
03-Jul-18 17:16 33.432153 -112.002592 89 1124ft 24kts
03-Jul-18 17:17 33.433683 -111.997833 356 1124ft 4kts
03-Jul-18 17:18 33.434049 -111.997329 78 1125ft 0kts
03-Jul-18 17:19 33.434049 -111.997329 77 1125ft 0kts

Navigation Log

Ident Type
Flight plan parsing failed, navigation log unavailable